sensor_id;sensor_type;location;lat;lon;timestamp;P1;durP1;ratioP1;P2;durP2;ratioP2
29414;SDS011;20303;48.302;11.914;2022-07-29T00:09:32;4.53;;;2.58;;
29414;SDS011;20303;48.302;11.914;2022-07-29T00:19:33;2.65;;;2.30;;
29414;SDS011;20303;48.302;11.914;2022-07-29T00:29:35;2.67;;;2.17;;
29414;SDS011;20303;48.302;11.914;2022-07-29T00:39:36;2.33;;;2.00;;
29414;SDS011;20303;48.302;11.914;2022-07-29T00:49:37;2.65;;;1.70;;
29414;SDS011;20303;48.302;11.914;2022-07-29T00:59:40;2.15;;;1.80;;
29414;SDS011;20303;48.302;11.914;2022-07-29T01:09:41;3.05;;;1.85;;
29414;SDS011;20303;48.302;11.914;2022-07-29T01:29:58;2.38;;;1.90;;
29414;SDS011;20303;48.302;11.914;2022-07-29T01:40:02;2.63;;;1.70;;
29414;SDS011;20303;48.302;11.914;2022-07-29T01:50:05;2.20;;;1.60;;
29414;SDS011;20303;48.302;11.914;2022-07-29T02:00:09;2.65;;;1.80;;
29414;SDS011;20303;48.302;11.914;2022-07-29T02:10:10;2.00;;;1.80;;
29414;SDS011;20303;48.302;11.914;2022-07-29T02:20:12;2.35;;;1.90;;
29414;SDS011;20303;48.302;11.914;2022-07-29T02:30:14;2.10;;;1.90;;
29414;SDS011;20303;48.302;11.914;2022-07-29T02:40:15;2.63;;;1.92;;
29414;SDS011;20303;48.302;11.914;2022-07-29T03:00:49;1.80;;;1.70;;
29414;SDS011;20303;48.302;11.914;2022-07-29T03:10:51;2.67;;;1.80;;
29414;SDS011;20303;48.302;11.914;2022-07-29T03:20:53;2.30;;;1.77;;
29414;SDS011;20303;48.302;11.914;2022-07-29T03:30:54;2.88;;;1.60;;
29414;SDS011;20303;48.302;11.914;2022-07-29T03:40:56;2.92;;;1.95;;
29414;SDS011;20303;48.302;11.914;2022-07-29T03:51:03;3.00;;;1.95;;
29414;SDS011;20303;48.302;11.914;2022-07-29T04:01:07;2.17;;;1.90;;
29414;SDS011;20303;48.302;11.914;2022-07-29T04:11:08;1.88;;;1.70;;
29414;SDS011;20303;48.302;11.914;2022-07-29T04:21:09;2.03;;;1.83;;
29414;SDS011;20303;48.302;11.914;2022-07-29T04:31:11;3.22;;;2.00;;
29414;SDS011;20303;48.302;11.914;2022-07-29T04:41:12;2.55;;;1.95;;
29414;SDS011;20303;48.302;11.914;2022-07-29T04:51:14;2.20;;;2.00;;
29414;SDS011;20303;48.302;11.914;2022-07-29T05:01:16;2.22;;;2.00;;
29414;SDS011;20303;48.302;11.914;2022-07-29T05:11:18;2.72;;;1.92;;
29414;SDS011;20303;48.302;11.914;2022-07-29T05:21:19;5.22;;;2.20;;
29414;SDS011;20303;48.302;11.914;2022-07-29T05:31:20;8.68;;;2.75;;
29414;SDS011;20303;48.302;11.914;2022-07-29T05:41:21;11.70;;;3.28;;
29414;SDS011;20303;48.302;11.914;2022-07-29T05:51:23;7.82;;;3.00;;
29414;SDS011;20303;48.302;11.914;2022-07-29T06:01:28;3.85;;;2.20;;
29414;SDS011;20303;48.302;11.914;2022-07-29T06:11:29;25.33;;;5.10;;
29414;SDS011;20303;48.302;11.914;2022-07-29T06:21:30;11.13;;;2.78;;
29414;SDS011;20303;48.302;11.914;2022-07-29T06:31:32;3.20;;;2.00;;
29414;SDS011;20303;48.302;11.914;2022-07-29T06:52:01;2.30;;;1.83;;
29414;SDS011;20303;48.302;11.914;2022-07-29T07:02:02;2.45;;;1.90;;
29414;SDS011;20303;48.302;11.914;2022-07-29T07:12:04;4.60;;;2.20;;
29414;SDS011;20303;48.302;11.914;2022-07-29T07:32:16;3.60;;;2.30;;
29414;SDS011;20303;48.302;11.914;2022-07-29T07:42:17;3.10;;;2.20;;
29414;SDS011;20303;48.302;11.914;2022-07-29T07:52:19;2.40;;;2.20;;
29414;SDS011;20303;48.302;11.914;2022-07-29T08:02:21;3.33;;;2.30;;
29414;SDS011;20303;48.302;11.914;2022-07-29T08:12:26;4.35;;;2.40;;
29414;SDS011;20303;48.302;11.914;2022-07-29T08:22:27;2.50;;;2.20;;
29414;SDS011;20303;48.302;11.914;2022-07-29T08:32:28;3.92;;;2.40;;
29414;SDS011;20303;48.302;11.914;2022-07-29T08:42:31;2.45;;;2.25;;
29414;SDS011;20303;48.302;11.914;2022-07-29T08:52:33;5.10;;;2.20;;
29414;SDS011;20303;48.302;11.914;2022-07-29T09:02:41;3.63;;;2.35;;
29414;SDS011;20303;48.302;11.914;2022-07-29T09:12:48;4.20;;;2.30;;
29414;SDS011;20303;48.302;11.914;2022-07-29T09:22:50;4.50;;;2.53;;
29414;SDS011;20303;48.302;11.914;2022-07-29T09:43:11;2.30;;;2.10;;
29414;SDS011;20303;48.302;11.914;2022-07-29T09:53:17;2.47;;;2.00;;
29414;SDS011;20303;48.302;11.914;2022-07-29T10:03:30;4.25;;;2.60;;
29414;SDS011;20303;48.302;11.914;2022-07-29T10:13:31;2.90;;;2.60;;
29414;SDS011;20303;48.302;11.914;2022-07-29T10:23:34;6.55;;;4.68;;
29414;SDS011;20303;48.302;11.914;2022-07-29T10:43:47;4.70;;;3.20;;
29414;SDS011;20303;48.302;11.914;2022-07-29T10:53:55;3.70;;;2.80;;
29414;SDS011;20303;48.302;11.914;2022-07-29T11:14:01;4.38;;;3.10;;
29414;SDS011;20303;48.302;11.914;2022-07-29T11:24:12;4.30;;;3.13;;
29414;SDS011;20303;48.302;11.914;2022-07-29T11:34:25;4.95;;;3.22;;
29414;SDS011;20303;48.302;11.914;2022-07-29T11:55:16;3.83;;;3.15;;
29414;SDS011;20303;48.302;11.914;2022-07-29T12:05:19;5.90;;;3.20;;
29414;SDS011;20303;48.302;11.914;2022-07-29T12:15:22;4.95;;;3.45;;
29414;SDS011;20303;48.302;11.914;2022-07-29T12:25:35;4.72;;;3.80;;
29414;SDS011;20303;48.302;11.914;2022-07-29T12:35:38;3.60;;;3.30;;
29414;SDS011;20303;48.302;11.914;2022-07-29T12:45:40;3.53;;;3.20;;
29414;SDS011;20303;48.302;11.914;2022-07-29T12:55:46;4.60;;;2.90;;
29414;SDS011;20303;48.302;11.914;2022-07-29T13:05:51;4.75;;;2.88;;
29414;SDS011;20303;48.302;11.914;2022-07-29T13:16:14;3.10;;;2.80;;
29414;SDS011;20303;48.302;11.914;2022-07-29T13:26:16;3.92;;;3.05;;
29414;SDS011;20303;48.302;11.914;2022-07-29T13:36:31;3.28;;;2.63;;
29414;SDS011;20303;48.302;11.914;2022-07-29T13:46:32;2.72;;;2.28;;
29414;SDS011;20303;48.302;11.914;2022-07-29T14:06:39;3.55;;;2.78;;
29414;SDS011;20303;48.302;11.914;2022-07-29T14:16:40;3.30;;;2.50;;
29414;SDS011;20303;48.302;11.914;2022-07-29T14:26:44;4.13;;;2.90;;
29414;SDS011;20303;48.302;11.914;2022-07-29T14:36:47;3.15;;;2.50;;
29414;SDS011;20303;48.302;11.914;2022-07-29T14:46:49;5.63;;;2.80;;
29414;SDS011;20303;48.302;11.914;2022-07-29T14:56:53;3.20;;;2.80;;
29414;SDS011;20303;48.302;11.914;2022-07-29T15:06:56;6.13;;;2.90;;
29414;SDS011;20303;48.302;11.914;2022-07-29T15:16:58;3.22;;;2.83;;
29414;SDS011;20303;48.302;11.914;2022-07-29T15:26:59;4.55;;;2.80;;
29414;SDS011;20303;48.302;11.914;2022-07-29T15:37:00;2.88;;;2.60;;
29414;SDS011;20303;48.302;11.914;2022-07-29T15:47:01;4.80;;;2.75;;
29414;SDS011;20303;48.302;11.914;2022-07-29T15:57:03;5.63;;;2.63;;
29414;SDS011;20303;48.302;11.914;2022-07-29T16:07:10;6.93;;;3.25;;
29414;SDS011;20303;48.302;11.914;2022-07-29T16:17:11;6.45;;;3.90;;
29414;SDS011;20303;48.302;11.914;2022-07-29T16:27:12;19.95;;;15.85;;
29414;SDS011;20303;48.302;11.914;2022-07-29T16:37:13;21.15;;;18.77;;
29414;SDS011;20303;48.302;11.914;2022-07-29T16:47:18;16.27;;;13.43;;
29414;SDS011;20303;48.302;11.914;2022-07-29T16:57:19;10.27;;;8.00;;
29414;SDS011;20303;48.302;11.914;2022-07-29T17:07:20;9.30;;;6.20;;
29414;SDS011;20303;48.302;11.914;2022-07-29T17:17:21;11.57;;;7.10;;
29414;SDS011;20303;48.302;11.914;2022-07-29T17:27:22;9.02;;;6.03;;
29414;SDS011;20303;48.302;11.914;2022-07-29T17:37:24;11.25;;;5.20;;
29414;SDS011;20303;48.302;11.914;2022-07-29T17:47:25;6.50;;;4.38;;
29414;SDS011;20303;48.302;11.914;2022-07-29T18:07:30;6.35;;;3.50;;
29414;SDS011;20303;48.302;11.914;2022-07-29T18:17:31;4.68;;;3.15;;
29414;SDS011;20303;48.302;11.914;2022-07-29T18:27:32;5.55;;;3.50;;
29414;SDS011;20303;48.302;11.914;2022-07-29T18:37:33;5.28;;;3.03;;
29414;SDS011;20303;48.302;11.914;2022-07-29T18:47:39;3.10;;;2.38;;
29414;SDS011;20303;48.302;11.914;2022-07-29T18:57:40;8.15;;;1.92;;
29414;SDS011;20303;48.302;11.914;2022-07-29T19:07:43;6.10;;;1.85;;
29414;SDS011;20303;48.302;11.914;2022-07-29T19:17:44;2.53;;;1.63;;
29414;SDS011;20303;48.302;11.914;2022-07-29T19:27:49;3.70;;;1.50;;
29414;SDS011;20303;48.302;11.914;2022-07-29T19:37:50;1.27;;;1.15;;
29414;SDS011;20303;48.302;11.914;2022-07-29T19:47:52;1.42;;;0.82;;
29414;SDS011;20303;48.302;11.914;2022-07-29T19:57:53;1.58;;;1.10;;
29414;SDS011;20303;48.302;11.914;2022-07-29T20:07:55;2.95;;;1.25;;
29414;SDS011;20303;48.302;11.914;2022-07-29T20:17:56;4.30;;;1.70;;
29414;SDS011;20303;48.302;11.914;2022-07-29T20:27:57;2.42;;;1.70;;
29414;SDS011;20303;48.302;11.914;2022-07-29T20:37:58;2.55;;;2.20;;
29414;SDS011;20303;48.302;11.914;2022-07-29T20:48:01;3.05;;;2.30;;
29414;SDS011;20303;48.302;11.914;2022-07-29T20:58:02;3.42;;;2.50;;
29414;SDS011;20303;48.302;11.914;2022-07-29T21:08:03;4.18;;;2.60;;
29414;SDS011;20303;48.302;11.914;2022-07-29T21:18:04;3.50;;;2.40;;
29414;SDS011;20303;48.302;11.914;2022-07-29T21:28:15;3.50;;;2.60;;
29414;SDS011;20303;48.302;11.914;2022-07-29T21:38:31;2.92;;;2.60;;
29414;SDS011;20303;48.302;11.914;2022-07-29T21:48:33;4.60;;;2.65;;
29414;SDS011;20303;48.302;11.914;2022-07-29T21:58:40;3.72;;;2.58;;
29414;SDS011;20303;48.302;11.914;2022-07-29T22:08:43;3.25;;;2.50;;
29414;SDS011;20303;48.302;11.914;2022-07-29T22:18:44;3.47;;;2.58;;
29414;SDS011;20303;48.302;11.914;2022-07-29T22:28:47;2.97;;;2.35;;
29414;SDS011;20303;48.302;11.914;2022-07-29T22:38:48;3.20;;;2.40;;
29414;SDS011;20303;48.302;11.914;2022-07-29T22:48:49;2.58;;;2.30;;
29414;SDS011;20303;48.302;11.914;2022-07-29T22:58:51;3.25;;;2.47;;
29414;SDS011;20303;48.302;11.914;2022-07-29T23:08:55;3.45;;;2.50;;
29414;SDS011;20303;48.302;11.914;2022-07-29T23:18:56;3.80;;;2.30;;
29414;SDS011;20303;48.302;11.914;2022-07-29T23:28:57;3.90;;;2.65;;
29414;SDS011;20303;48.302;11.914;2022-07-29T23:38:58;3.78;;;2.50;;
29414;SDS011;20303;48.302;11.914;2022-07-29T23:48:59;2.67;;;2.40;;
29414;SDS011;20303;48.302;11.914;2022-07-29T23:59:00;3.65;;;2.38;;
